createdAt,value
2023-09-26T00:00:19.257Z,9.70
2023-09-26T00:02:47.209Z,9.60
2023-09-26T00:05:14.435Z,9.50
2023-09-26T00:07:41.971Z,9.40
2023-09-26T00:10:10.475Z,9.50
2023-09-26T00:12:37.494Z,9.30
2023-09-26T00:15:04.757Z,9.30
2023-09-26T00:17:31.668Z,9.30
2023-09-26T00:19:58.650Z,9.30
2023-09-26T00:22:26.193Z,9.40
2023-09-26T00:24:54.012Z,9.40
2023-09-26T00:27:20.838Z,9.30
2023-09-26T00:29:48.461Z,9.20
2023-09-26T00:32:15.986Z,10.10
2023-09-26T00:34:42.789Z,9.10
2023-09-26T00:37:09.641Z,9.10
2023-09-26T00:39:37.554Z,9.00
2023-09-26T00:42:04.998Z,8.90
2023-09-26T00:44:32.360Z,8.90
2023-09-26T00:47:01.118Z,8.90
2023-09-26T00:49:28.685Z,8.90
2023-09-26T00:51:56.378Z,9.50
2023-09-26T00:54:23.161Z,8.90
2023-09-26T00:56:50.166Z,8.90
2023-09-26T00:59:16.839Z,9.00
2023-09-26T01:01:43.912Z,9.00
2023-09-26T01:04:10.744Z,9.10
2023-09-26T01:06:37.887Z,9.10
2023-09-26T01:09:07.158Z,9.10
2023-09-26T01:11:34.009Z,9.10
2023-09-26T01:14:00.771Z,9.80
2023-09-26T01:16:27.539Z,8.90
2023-09-26T01:18:54.296Z,8.90
2023-09-26T01:21:21.322Z,8.90
2023-09-26T01:24:00.053Z,9.30
2023-09-26T01:26:26.814Z,9.00
2023-09-26T01:28:53.641Z,8.90
2023-09-26T01:31:20.553Z,9.40
2023-09-26T01:33:47.359Z,8.90
2023-09-26T01:36:14.152Z,9.00
2023-09-26T01:38:41.118Z,9.20
2023-09-26T01:41:07.844Z,9.30
2023-09-26T01:43:36.941Z,9.20
2023-09-26T01:46:04.089Z,9.10
2023-09-26T01:48:30.943Z,9.10
2023-09-26T01:50:57.692Z,9.00
2023-09-26T01:53:25.186Z,9.00
2023-09-26T01:55:51.926Z,10.00
2023-09-26T01:58:18.672Z,9.00
2023-09-26T02:00:45.707Z,9.00
2023-09-26T02:03:12.405Z,9.00
2023-09-26T02:05:39.486Z,9.00
2023-09-26T02:08:06.271Z,9.10
2023-09-26T02:10:33.441Z,9.10
2023-09-26T02:13:00.274Z,9.20
2023-09-26T02:15:27.341Z,9.00
2023-09-26T02:17:54.125Z,8.90
2023-09-26T02:20:21.058Z,9.60
2023-09-26T02:22:49.397Z,9.00
2023-09-26T02:25:17.066Z,9.10
2023-09-26T02:27:44.502Z,9.20
2023-09-26T02:30:12.270Z,9.30
2023-09-26T02:32:39.184Z,9.40
2023-09-26T02:35:07.748Z,9.40
2023-09-26T02:37:34.776Z,9.50
2023-09-26T02:40:05.982Z,10.30
2023-09-26T02:42:34.348Z,9.50
2023-09-26T02:45:01.169Z,9.50
2023-09-26T02:47:30.551Z,10.30
2023-09-26T02:49:57.277Z,9.30
2023-09-26T02:52:25.102Z,9.10
2023-09-26T02:54:51.985Z,9.00
2023-09-26T02:57:19.550Z,8.90
2023-09-26T02:59:46.500Z,9.10
2023-09-26T03:02:13.398Z,8.90
2023-09-26T03:04:40.150Z,8.90
2023-09-26T03:07:07.038Z,8.80
2023-09-26T03:09:34.397Z,9.30
2023-09-26T03:12:01.660Z,8.80
2023-09-26T03:14:28.477Z,8.60
2023-09-26T03:16:55.825Z,8.70
2023-09-26T03:19:24.776Z,8.70
2023-09-26T03:21:52.181Z,10.10
2023-09-26T03:24:19.726Z,9.10
2023-09-26T03:26:46.665Z,8.80
2023-09-26T03:29:13.354Z,8.80
2023-09-26T03:31:43.015Z,8.70
2023-09-26T03:34:12.868Z,8.70
2023-09-26T03:36:39.972Z,8.70
2023-09-26T03:39:06.941Z,8.60
2023-09-26T03:41:33.698Z,9.40
2023-09-26T03:44:00.401Z,8.60
2023-09-26T03:46:27.249Z,8.60
2023-09-26T03:48:54.258Z,8.60
2023-09-26T03:51:21.385Z,8.60
2023-09-26T03:53:48.484Z,8.60
2023-09-26T03:56:15.257Z,8.60
2023-09-26T03:58:42.299Z,8.50
2023-09-26T04:01:11.074Z,8.70
2023-09-26T04:03:38.374Z,10.50
2023-09-26T04:06:05.164Z,8.70
2023-09-26T04:08:32.010Z,9.10
2023-09-26T04:10:58.993Z,8.90
2023-09-26T04:13:25.694Z,8.90
2023-09-26T04:15:53.962Z,9.00
2023-09-26T04:18:21.816Z,8.80
2023-09-26T04:20:48.561Z,8.70
2023-09-26T04:23:15.252Z,8.60
2023-09-26T04:25:41.918Z,8.50
2023-09-26T04:28:08.922Z,9.70
2023-09-26T04:30:39.884Z,8.50
2023-09-26T04:33:07.879Z,8.40
2023-09-26T04:35:34.628Z,8.30
2023-09-26T04:38:01.680Z,8.30
2023-09-26T04:40:28.401Z,8.20
2023-09-26T04:43:00.484Z,8.40
2023-09-26T04:45:30.628Z,8.10
2023-09-26T04:48:01.159Z,8.00
2023-09-26T04:50:28.627Z,8.00
2023-09-26T04:52:55.541Z,8.00
2023-09-26T04:55:22.765Z,9.30
2023-09-26T04:57:49.914Z,8.00
2023-09-26T05:00:21.157Z,8.00
2023-09-26T05:02:52.461Z,8.00
2023-09-26T05:05:20.331Z,8.00
2023-09-26T05:07:47.690Z,7.90
2023-09-26T05:10:14.870Z,7.90
2023-09-26T05:12:42.122Z,7.80
2023-09-26T05:15:15.686Z,7.80
2023-09-26T05:17:43.188Z,7.80
2023-09-26T05:20:13.459Z,7.80
2023-09-26T05:22:42.149Z,7.80
2023-09-26T05:25:09.300Z,7.80
2023-09-26T05:27:37.249Z,7.70
2023-09-26T05:30:04.609Z,7.70
2023-09-26T05:32:31.403Z,7.70
2023-09-26T05:34:58.541Z,7.80
2023-09-26T05:37:25.741Z,7.80
2023-09-26T05:39:52.559Z,7.80
2023-09-26T05:42:19.297Z,7.90
2023-09-26T05:44:46.024Z,7.90
2023-09-26T05:47:12.845Z,7.90
2023-09-26T05:49:39.898Z,8.00
2023-09-26T05:52:06.538Z,8.00
2023-09-26T05:54:34.312Z,8.80
2023-09-26T05:57:04.496Z,8.00
2023-09-26T05:59:31.381Z,8.00
2023-09-26T06:01:58.140Z,8.20
2023-09-26T06:04:25.363Z,8.20
2023-09-26T06:06:52.566Z,8.20
2023-09-26T06:09:19.284Z,8.20
2023-09-26T06:11:46.341Z,8.10
2023-09-26T06:14:13.035Z,8.20
2023-09-26T06:16:40.683Z,8.30
2023-09-26T06:19:07.666Z,8.20
2023-09-26T06:21:34.440Z,9.50
2023-09-26T06:24:01.205Z,8.40
2023-09-26T06:26:27.861Z,8.40
2023-09-26T06:28:54.581Z,8.50
2023-09-26T06:31:21.450Z,8.50
2023-09-26T06:33:48.227Z,8.70
2023-09-26T06:36:16.545Z,8.80
2023-09-26T06:38:43.300Z,9.30
2023-09-26T06:41:10.128Z,10.40
2023-09-26T06:43:39.809Z,9.10
2023-09-26T06:46:07.991Z,11.30
2023-09-26T06:48:43.438Z,11.50
2023-09-26T06:51:10.365Z,9.80
2023-09-26T06:53:38.887Z,9.30
2023-09-26T06:56:09.564Z,9.40
2023-09-26T06:58:36.972Z,9.50
2023-09-26T07:01:04.691Z,9.60
2023-09-26T07:03:33.390Z,9.70
2023-09-26T07:06:08.323Z,9.80
2023-09-26T07:08:35.005Z,9.90
2023-09-26T07:11:05.122Z,10.00
2023-09-26T07:13:56.433Z,10.10
2023-09-26T07:16:19.093Z,10.20
2023-09-26T07:18:46.102Z,10.30
2023-09-26T07:21:12.793Z,10.50
2023-09-26T07:23:39.445Z,10.60
2023-09-26T07:26:11.845Z,12.10
2023-09-26T07:28:42.274Z,10.70
2023-09-26T07:31:10.403Z,10.80
2023-09-26T07:33:37.293Z,13.00
2023-09-26T07:36:05.137Z,10.90
2023-09-26T07:38:33.203Z,11.00
2023-09-26T07:41:03.494Z,12.00
2023-09-26T07:43:31.054Z,11.20
2023-09-26T07:46:00.702Z,11.30
2023-09-26T07:48:27.422Z,12.30
2023-09-26T07:50:54.160Z,11.50
2023-09-26T07:53:20.903Z,11.60
2023-09-26T07:55:48.161Z,11.70
2023-09-26T07:58:16.060Z,12.20
2023-09-26T08:00:43.540Z,12.90
2023-09-26T08:03:11.733Z,12.20
2023-09-26T08:05:38.851Z,12.10
2023-09-26T08:08:05.720Z,12.20
2023-09-26T08:10:33.076Z,12.30
2023-09-26T08:13:00.303Z,12.50
2023-09-26T08:15:28.931Z,13.00
2023-09-26T08:17:56.069Z,12.60
2023-09-26T08:20:25.142Z,12.70
2023-09-26T08:22:51.872Z,14.40
2023-09-26T08:25:18.766Z,12.90
2023-09-26T08:27:46.331Z,13.00
2023-09-26T08:30:13.265Z,14.40
2023-09-26T08:32:40.876Z,13.10
2023-09-26T08:35:08.025Z,13.60
2023-09-26T08:37:35.143Z,13.20
2023-09-26T08:40:04.567Z,13.60
2023-09-26T08:42:32.056Z,13.70
2023-09-26T08:44:58.904Z,13.40
2023-09-26T08:47:25.972Z,13.50
2023-09-26T08:49:56.981Z,15.30
2023-09-26T08:52:26.935Z,13.70
2023-09-26T08:54:53.857Z,13.80
2023-09-26T08:57:21.116Z,13.90
2023-09-26T08:59:48.352Z,14.30
2023-09-26T09:02:15.325Z,14.90
2023-09-26T09:04:42.833Z,14.30
2023-09-26T09:07:10.058Z,14.40
2023-09-26T09:09:37.024Z,14.70
2023-09-26T09:12:03.861Z,14.60
2023-09-26T09:14:34.655Z,14.60
2023-09-26T09:17:01.670Z,14.70
2023-09-26T09:19:47.987Z,14.80
2023-09-26T09:22:15.745Z,14.90
2023-09-26T09:24:42.544Z,15.20
2023-09-26T09:27:09.239Z,15.10
2023-09-26T09:29:36.961Z,15.20
2023-09-26T09:32:03.955Z,15.30
2023-09-26T09:34:32.534Z,15.40
2023-09-26T09:36:59.567Z,15.50
2023-09-26T09:39:26.270Z,15.60
2023-09-26T09:41:58.844Z,15.80
2023-09-26T09:44:26.279Z,15.90
2023-09-26T09:46:56.600Z,16.00
2023-09-26T09:49:24.113Z,16.70
2023-09-26T09:51:52.194Z,16.90
2023-09-26T09:54:21.258Z,16.40
2023-09-26T09:56:48.433Z,16.50
2023-09-26T09:59:17.727Z,17.60
2023-09-26T10:01:51.479Z,16.60
2023-09-26T10:04:19.818Z,16.80
2023-09-26T10:06:46.731Z,18.20
2023-09-26T10:09:14.356Z,17.10
2023-09-26T10:11:41.740Z,17.20
2023-09-26T10:14:11.538Z,17.40
2023-09-26T10:16:38.468Z,17.40
2023-09-26T10:19:05.693Z,17.60
2023-09-26T10:21:32.784Z,17.70
2023-09-26T10:24:13.924Z,17.80
2023-09-26T10:26:41.579Z,17.90
2023-09-26T10:29:12.497Z,18.00
2023-09-26T10:31:55.191Z,18.20
2023-09-26T10:34:46.892Z,18.30
2023-09-26T10:37:19.527Z,18.40
2023-09-26T10:39:46.495Z,18.50
2023-09-26T10:42:35.960Z,18.50
2023-09-26T10:45:00.855Z,18.50
2023-09-26T10:47:27.697Z,18.50
2023-09-26T10:49:56.612Z,18.80
2023-09-26T10:52:26.077Z,19.30
2023-09-26T10:54:53.399Z,19.40
2023-09-26T10:57:21.840Z,18.60
2023-09-26T10:59:50.526Z,19.50
2023-09-26T11:02:17.366Z,19.20
2023-09-26T11:04:45.003Z,18.90
2023-09-26T11:07:13.218Z,18.90
2023-09-26T11:09:44.041Z,19.00
2023-09-26T11:12:12.473Z,18.80
2023-09-26T11:14:39.343Z,18.90
2023-09-26T11:17:06.065Z,19.00
2023-09-26T11:19:33.572Z,20.00
2023-09-26T11:22:00.391Z,18.80
2023-09-26T11:24:33.729Z,18.90
2023-09-26T11:27:04.777Z,19.40
2023-09-26T11:29:35.760Z,19.20
2023-09-26T11:32:04.767Z,19.30
2023-09-26T11:34:32.176Z,19.20
2023-09-26T11:36:59.417Z,19.30
2023-09-26T11:39:26.440Z,19.20
2023-09-26T11:42:03.639Z,20.00
2023-09-26T11:44:30.405Z,19.30
2023-09-26T11:46:57.219Z,19.50
2023-09-26T11:49:24.456Z,19.50
2023-09-26T11:51:52.784Z,19.60
2023-09-26T11:54:19.791Z,19.50
2023-09-26T11:56:46.649Z,19.40
2023-09-26T11:59:13.865Z,19.40
2023-09-26T12:01:44.251Z,19.40
2023-09-26T12:04:12.276Z,19.40
2023-09-26T12:06:41.637Z,19.40
2023-09-26T12:09:11.570Z,19.50
2023-09-26T12:11:39.518Z,19.60
2023-09-26T12:14:06.183Z,19.90
2023-09-26T12:16:33.122Z,19.80
2023-09-26T12:18:59.888Z,19.90
2023-09-26T12:21:26.635Z,20.00
2023-09-26T12:23:54.267Z,20.00
2023-09-26T12:26:21.066Z,20.00
2023-09-26T12:28:47.779Z,20.00
2023-09-26T12:31:14.614Z,20.00
2023-09-26T12:33:41.322Z,20.00
2023-09-26T12:36:08.070Z,20.10
2023-09-26T12:38:34.733Z,20.00
2023-09-26T12:41:01.511Z,20.00
2023-09-26T12:43:28.260Z,20.00
2023-09-26T12:45:55.026Z,20.10
2023-09-26T12:48:21.875Z,20.10
2023-09-26T12:50:48.720Z,20.20
2023-09-26T12:53:15.488Z,20.40
2023-09-26T12:55:42.226Z,20.20
2023-09-26T12:58:09.016Z,20.50
2023-09-26T13:00:36.092Z,20.50
2023-09-26T13:03:04.089Z,20.50
2023-09-26T13:05:31.179Z,20.60
2023-09-26T13:07:57.861Z,20.60
2023-09-26T13:10:24.522Z,20.60
2023-09-26T13:12:51.296Z,20.70
2023-09-26T13:15:18.273Z,20.80
2023-09-26T13:17:46.193Z,20.80
2023-09-26T13:20:13.041Z,20.80
2023-09-26T13:22:40.290Z,20.80
2023-09-26T13:25:07.554Z,20.80
2023-09-26T13:27:34.890Z,20.80
2023-09-26T13:30:01.607Z,20.80
2023-09-26T13:32:28.510Z,20.90
2023-09-26T13:34:55.837Z,20.90
2023-09-26T13:37:22.654Z,20.90
2023-09-26T13:39:49.793Z,20.90
2023-09-26T13:42:16.805Z,20.90
2023-09-26T13:44:43.594Z,20.90
2023-09-26T13:47:10.341Z,20.90
2023-09-26T13:49:37.384Z,21.00
2023-09-26T13:52:04.632Z,20.90
2023-09-26T13:54:31.537Z,20.90
2023-09-26T13:56:58.653Z,21.20
2023-09-26T13:59:25.377Z,21.20
2023-09-26T14:01:52.155Z,21.20
2023-09-26T14:04:19.028Z,21.10
2023-09-26T14:06:45.936Z,21.10
2023-09-26T14:09:12.794Z,21.20
2023-09-26T14:11:39.557Z,21.10
2023-09-26T14:14:06.311Z,21.20
2023-09-26T14:16:34.255Z,21.20
2023-09-26T14:19:02.369Z,21.30
2023-09-26T14:21:29.154Z,21.30
2023-09-26T14:23:55.873Z,21.30
2023-09-26T14:26:26.245Z,21.40
2023-09-26T14:28:55.639Z,21.40
2023-09-26T14:31:22.478Z,21.40
2023-09-26T14:33:49.411Z,21.30
2023-09-26T14:36:16.491Z,21.30
2023-09-26T14:38:43.182Z,21.30
2023-09-26T14:41:09.883Z,21.20
2023-09-26T14:43:36.650Z,21.30
2023-09-26T14:46:03.860Z,21.50
2023-09-26T14:48:30.562Z,21.60
2023-09-26T14:50:59.034Z,21.60
2023-09-26T14:53:26.478Z,21.60
2023-09-26T14:55:53.445Z,21.60
2023-09-26T14:58:20.486Z,21.70
2023-09-26T15:00:50.642Z,21.70
2023-09-26T15:03:18.124Z,21.80
2023-09-26T15:05:45.204Z,21.80
2023-09-26T15:08:12.724Z,21.90
2023-09-26T15:10:39.567Z,21.90
2023-09-26T15:13:07.775Z,21.80
2023-09-26T15:15:34.500Z,21.70
2023-09-26T15:18:01.311Z,21.60
2023-09-26T15:20:28.029Z,21.60
2023-09-26T15:22:54.907Z,21.70
2023-09-26T15:25:21.794Z,21.70
2023-09-26T15:27:48.560Z,21.80
2023-09-26T15:30:15.652Z,21.80
2023-09-26T15:32:42.831Z,21.80
2023-09-26T15:35:10.119Z,21.70
2023-09-26T15:37:36.997Z,21.60
2023-09-26T15:40:04.904Z,21.60
2023-09-26T15:42:32.951Z,21.60
2023-09-26T15:44:59.626Z,21.70
2023-09-26T15:47:28.309Z,21.70
2023-09-26T15:49:55.208Z,21.70
2023-09-26T15:52:22.196Z,21.60
2023-09-26T15:54:49.316Z,21.60
2023-09-26T15:57:16.118Z,21.60
2023-09-26T15:59:43.528Z,21.60
2023-09-26T16:02:10.651Z,21.50
2023-09-26T16:04:37.571Z,21.40
2023-09-26T16:07:04.903Z,21.40
2023-09-26T16:09:31.778Z,21.30
2023-09-26T16:11:58.789Z,21.30
2023-09-26T16:14:25.933Z,21.20
2023-09-26T16:16:52.928Z,21.20
2023-09-26T16:19:19.719Z,21.20
2023-09-26T16:21:46.450Z,21.30
2023-09-26T16:24:13.194Z,21.30
2023-09-26T16:26:40.047Z,21.30
2023-09-26T16:29:07.256Z,21.30
2023-09-26T16:31:34.722Z,21.30
2023-09-26T16:34:01.768Z,21.20
2023-09-26T16:36:28.525Z,21.10
2023-09-26T16:38:55.280Z,21.00
2023-09-26T16:41:23.528Z,20.90
2023-09-26T16:43:50.784Z,20.80
2023-09-26T16:46:17.804Z,20.70
2023-09-26T16:48:44.682Z,20.50
2023-09-26T16:51:11.447Z,20.30
2023-09-26T16:53:41.851Z,20.10
2023-09-26T16:56:08.689Z,19.80
2023-09-26T16:58:35.574Z,18.70
2023-09-26T17:01:20.869Z,19.40
2023-09-26T17:03:49.290Z,19.30
2023-09-26T17:06:16.120Z,19.00
2023-09-26T17:08:42.986Z,19.30
2023-09-26T17:11:10.647Z,18.60
2023-09-26T17:13:38.126Z,18.40
2023-09-26T17:16:05.059Z,18.10
2023-09-26T17:18:31.776Z,17.80
2023-09-26T17:20:59.407Z,17.50
2023-09-26T17:23:26.182Z,18.30
2023-09-26T17:25:52.966Z,17.60
2023-09-26T17:28:19.730Z,17.10
2023-09-26T17:30:46.417Z,18.20
2023-09-26T17:33:14.222Z,17.50
2023-09-26T17:35:43.795Z,16.70
2023-09-26T17:38:11.176Z,16.60
2023-09-26T17:40:38.149Z,17.80
2023-09-26T17:43:05.351Z,16.70
2023-09-26T17:45:32.280Z,16.70
2023-09-26T17:47:59.565Z,16.80
2023-09-26T17:50:26.429Z,16.80
2023-09-26T17:52:53.288Z,17.70
2023-09-26T17:55:20.062Z,16.70
2023-09-26T17:57:46.798Z,16.70
2023-09-26T18:00:16.137Z,16.70
2023-09-26T18:02:42.921Z,16.60
2023-09-26T18:05:09.867Z,16.50
2023-09-26T18:07:36.631Z,16.50
2023-09-26T18:10:04.391Z,16.50
2023-09-26T18:12:31.150Z,16.50
2023-09-26T18:14:58.073Z,16.50
2023-09-26T18:17:24.877Z,16.40
2023-09-26T18:19:51.711Z,16.30
2023-09-26T18:22:18.612Z,16.20
2023-09-26T18:24:45.359Z,16.20
2023-09-26T18:27:12.115Z,16.10
2023-09-26T18:29:38.871Z,16.00
2023-09-26T18:32:05.726Z,16.00
2023-09-26T18:34:32.404Z,16.80
2023-09-26T18:36:59.169Z,15.90
2023-09-26T18:39:25.786Z,17.00
2023-09-26T18:41:52.500Z,16.50
2023-09-26T18:44:19.525Z,15.90
2023-09-26T18:46:46.499Z,15.80
2023-09-26T18:49:13.643Z,16.50
2023-09-26T18:51:40.425Z,15.70
2023-09-26T18:54:07.880Z,15.60
2023-09-26T18:56:35.301Z,15.60
2023-09-26T18:59:02.587Z,15.40
2023-09-26T19:01:30.952Z,15.30
2023-09-26T19:03:59.052Z,15.20
2023-09-26T19:06:27.539Z,14.90
2023-09-26T19:08:54.305Z,14.60
2023-09-26T19:11:21.086Z,14.90
2023-09-26T19:13:47.940Z,14.50
2023-09-26T19:16:14.800Z,14.40
2023-09-26T19:18:49.896Z,14.40
2023-09-26T19:21:25.096Z,14.40
2023-09-26T19:23:51.756Z,14.50
2023-09-26T19:26:18.510Z,14.20
2023-09-26T19:28:45.548Z,14.20
2023-09-26T19:31:13.599Z,14.10
2023-09-26T19:33:40.483Z,13.90
2023-09-26T19:36:08.328Z,14.10
2023-09-26T19:38:36.153Z,13.60
2023-09-26T19:41:03.236Z,14.00
2023-09-26T19:43:31.460Z,13.50
2023-09-26T19:46:00.186Z,13.40
2023-09-26T19:48:27.895Z,13.30
2023-09-26T19:50:54.894Z,13.10
2023-09-26T19:53:24.344Z,13.00
2023-09-26T19:55:51.283Z,12.90
2023-09-26T19:58:18.555Z,12.80
2023-09-26T20:00:45.848Z,12.80
2023-09-26T20:03:12.776Z,12.70
2023-09-26T20:05:41.022Z,12.80
2023-09-26T20:08:07.818Z,12.70
2023-09-26T20:10:34.732Z,12.60
2023-09-26T20:13:01.431Z,12.60
2023-09-26T20:15:28.156Z,12.60
2023-09-26T20:17:54.976Z,13.30
2023-09-26T20:20:21.939Z,12.80
2023-09-26T20:22:50.049Z,12.50
2023-09-26T20:25:17.427Z,12.50
2023-09-26T20:27:44.283Z,12.50
2023-09-26T20:30:11.317Z,12.50
2023-09-26T20:32:38.182Z,12.50
2023-09-26T20:35:07.073Z,12.60
2023-09-26T20:37:33.884Z,12.50
2023-09-26T20:40:00.642Z,12.60
2023-09-26T20:42:27.378Z,12.60
2023-09-26T20:44:54.322Z,12.60
2023-09-26T20:47:21.070Z,12.70
2023-09-26T20:49:47.858Z,12.70
2023-09-26T20:52:14.539Z,14.20
2023-09-26T20:54:41.271Z,12.70
2023-09-26T20:57:08.049Z,13.60
2023-09-26T20:59:34.751Z,12.70
2023-09-26T21:02:01.488Z,12.60
2023-09-26T21:04:28.238Z,12.60
2023-09-26T21:06:56.948Z,12.60
2023-09-26T21:09:23.663Z,12.50
2023-09-26T21:11:51.668Z,12.50
2023-09-26T21:14:18.528Z,12.60
2023-09-26T21:16:45.250Z,13.00
2023-09-26T21:19:11.986Z,12.50
2023-09-26T21:21:39.499Z,12.50
2023-09-26T21:24:06.586Z,12.60
2023-09-26T21:26:35.469Z,12.60
2023-09-26T21:29:02.300Z,12.50
2023-09-26T21:31:29.185Z,12.50
2023-09-26T21:33:56.279Z,12.50
2023-09-26T21:36:23.009Z,12.50
2023-09-26T21:38:49.752Z,12.50
2023-09-26T21:41:16.591Z,12.50
2023-09-26T21:43:43.901Z,12.60
2023-09-26T21:46:10.819Z,13.00
2023-09-26T21:48:38.905Z,12.70
2023-09-26T21:51:05.918Z,12.70
2023-09-26T21:53:32.878Z,12.70
2023-09-26T21:55:59.717Z,12.60
2023-09-26T21:58:26.548Z,12.40
2023-09-26T22:00:53.927Z,12.40
2023-09-26T22:03:20.871Z,12.30
2023-09-26T22:05:48.116Z,12.40
2023-09-26T22:08:15.051Z,12.30
2023-09-26T22:10:42.084Z,12.40
2023-09-26T22:13:08.841Z,12.50
2023-09-26T22:15:35.967Z,12.60
2023-09-26T22:18:03.333Z,12.40
2023-09-26T22:20:34.621Z,12.50
2023-09-26T22:23:01.952Z,14.40
2023-09-26T22:25:28.926Z,12.50
2023-09-26T22:27:56.072Z,12.40
2023-09-26T22:30:24.291Z,13.10
2023-09-26T22:32:51.365Z,12.70
2023-09-26T22:35:18.776Z,12.40
2023-09-26T22:37:46.034Z,12.10
2023-09-26T22:40:13.132Z,12.10
2023-09-26T22:42:40.254Z,12.00
2023-09-26T22:45:08.185Z,12.00
2023-09-26T22:47:35.267Z,12.00
2023-09-26T22:50:05.475Z,13.10
2023-09-26T22:52:34.433Z,14.20
2023-09-26T22:55:01.671Z,13.50
2023-09-26T22:57:28.494Z,13.60
2023-09-26T22:59:55.772Z,12.20
2023-09-26T23:02:22.535Z,12.30
2023-09-26T23:04:49.347Z,12.30
2023-09-26T23:07:16.066Z,12.40
2023-09-26T23:09:42.819Z,12.40
2023-09-26T23:12:09.545Z,12.40
2023-09-26T23:14:36.390Z,13.30
2023-09-26T23:17:03.836Z,12.30
2023-09-26T23:19:30.604Z,13.80
2023-09-26T23:21:57.993Z,12.30
2023-09-26T23:24:24.784Z,11.90
2023-09-26T23:26:52.595Z,12.00
2023-09-26T23:29:19.364Z,11.70
2023-09-26T23:31:47.257Z,12.40
2023-09-26T23:34:14.091Z,11.60
2023-09-26T23:36:40.950Z,12.40
2023-09-26T23:39:08.807Z,12.60
2023-09-26T23:41:36.163Z,12.90
2023-09-26T23:44:05.610Z,11.40
2023-09-26T23:46:32.609Z,11.50
2023-09-26T23:48:59.615Z,11.50
2023-09-26T23:51:26.479Z,11.60
2023-09-26T23:53:53.709Z,11.60
2023-09-26T23:56:20.446Z,13.10
2023-09-26T23:58:47.227Z,12.30
